sensor_id;sensor_type;location;lat;lon;timestamp;pressure;altitude;pressure_sealevel;temperature;humidity
51986;BME280;38002;53.296;6.600;2022-12-20T00:00:16;101384.66;;;9.48;91.68
51986;BME280;38002;53.296;6.600;2022-12-20T00:05:16;101378.66;;;9.44;92.56
51986;BME280;38002;53.296;6.600;2022-12-20T00:10:17;101370.78;;;9.41;92.25
51986;BME280;38002;53.296;6.600;2022-12-20T00:15:17;101368.91;;;9.42;92.48
51986;BME280;38002;53.296;6.600;2022-12-20T00:20:18;101366.38;;;9.40;91.95
51986;BME280;38002;53.296;6.600;2022-12-20T00:25:19;101362.06;;;9.38;92.42
51986;BME280;38002;53.296;6.600;2022-12-20T00:30:20;101364.34;;;9.33;92.36
51986;BME280;38002;53.296;6.600;2022-12-20T00:35:20;101362.91;;;9.29;92.06
51986;BME280;38002;53.296;6.600;2022-12-20T00:40:20;101363.91;;;9.28;91.92
51986;BME280;38002;53.296;6.600;2022-12-20T00:45:21;101364.34;;;9.33;91.22
51986;BME280;38002;53.296;6.600;2022-12-20T00:50:21;101367.50;;;9.38;91.21
51986;BME280;38002;53.296;6.600;2022-12-20T00:55:22;101354.50;;;9.41;90.37
51986;BME280;38002;53.296;6.600;2022-12-20T01:00:22;101342.78;;;9.41;90.58
51986;BME280;38002;53.296;6.600;2022-12-20T01:05:22;101342.78;;;9.41;90.75
51986;BME280;38002;53.296;6.600;2022-12-20T01:10:23;101338.63;;;9.37;90.33
51986;BME280;38002;53.296;6.600;2022-12-20T01:15:24;101346.78;;;9.37;89.56
51986;BME280;38002;53.296;6.600;2022-12-20T01:20:25;101355.66;;;9.39;90.23
51986;BME280;38002;53.296;6.600;2022-12-20T01:25:25;101340.06;;;9.41;90.07
51986;BME280;38002;53.296;6.600;2022-12-20T01:30:25;101349.78;;;9.43;90.27
51986;BME280;38002;53.296;6.600;2022-12-20T01:35:26;101328.50;;;9.39;88.86
51986;BME280;38002;53.296;6.600;2022-12-20T01:40:26;101324.19;;;9.46;89.52
51986;BME280;38002;53.296;6.600;2022-12-20T01:45:28;101313.78;;;9.51;88.95
51986;BME280;38002;53.296;6.600;2022-12-20T01:50:29;101309.22;;;9.51;88.80
51986;BME280;38002;53.296;6.600;2022-12-20T01:55:31;101320.38;;;9.48;88.14
51986;BME280;38002;53.296;6.600;2022-12-20T02:00:32;101302.66;;;9.44;89.31
51986;BME280;38002;53.296;6.600;2022-12-20T02:05:37;101300.94;;;9.43;89.41
51986;BME280;38002;53.296;6.600;2022-12-20T02:15:55;101297.78;;;9.38;88.56
51986;BME280;38002;53.296;6.600;2022-12-20T02:31:33;101285.22;;;9.37;88.15
51986;BME280;38002;53.296;6.600;2022-12-20T02:36:37;101274.34;;;9.37;89.01
51986;BME280;38002;53.296;6.600;2022-12-20T02:41:42;101272.50;;;9.38;88.51
51986;BME280;38002;53.296;6.600;2022-12-20T02:46:45;101275.50;;;9.35;89.02
51986;BME280;38002;53.296;6.600;2022-12-20T02:51:49;101270.94;;;9.35;89.22
51986;BME280;38002;53.296;6.600;2022-12-20T02:56:56;101278.34;;;9.33;88.51
51986;BME280;38002;53.296;6.600;2022-12-20T03:02:00;101282.06;;;9.32;88.22
51986;BME280;38002;53.296;6.600;2022-12-20T03:07:07;101264.94;;;9.32;90.14
51986;BME280;38002;53.296;6.600;2022-12-20T03:12:09;101256.81;;;9.32;89.43
51986;BME280;38002;53.296;6.600;2022-12-20T03:17:10;101267.81;;;9.30;90.45
51986;BME280;38002;53.296;6.600;2022-12-20T03:22:11;101247.22;;;9.28;90.89
51986;BME280;38002;53.296;6.600;2022-12-20T03:27:11;101242.25;;;9.23;91.42
51986;BME280;38002;53.296;6.600;2022-12-20T03:32:12;101248.38;;;9.25;91.35
51986;BME280;38002;53.296;6.600;2022-12-20T03:37:13;101243.81;;;9.26;92.22
51986;BME280;38002;53.296;6.600;2022-12-20T03:42:14;101236.66;;;9.25;91.51
51986;BME280;38002;53.296;6.600;2022-12-20T03:47:14;101241.09;;;9.26;92.24
51986;BME280;38002;53.296;6.600;2022-12-20T03:52:14;101243.94;;;9.24;92.56
51986;BME280;38002;53.296;6.600;2022-12-20T03:57:15;101256.38;;;9.27;92.82
51986;BME280;38002;53.296;6.600;2022-12-20T04:02:15;101269.22;;;9.25;93.06
51986;BME280;38002;53.296;6.600;2022-12-20T04:07:16;101268.66;;;9.21;92.55
51986;BME280;38002;53.296;6.600;2022-12-20T04:12:16;101257.66;;;9.23;92.87
51986;BME280;38002;53.296;6.600;2022-12-20T04:17:17;101264.09;;;9.22;93.28
51986;BME280;38002;53.296;6.600;2022-12-20T04:22:17;101273.97;;;9.23;93.36
51986;BME280;38002;53.296;6.600;2022-12-20T04:27:18;101251.53;;;9.21;93.94
51986;BME280;38002;53.296;6.600;2022-12-20T04:32:18;101251.22;;;9.24;93.49
51986;BME280;38002;53.296;6.600;2022-12-20T04:37:18;101242.22;;;9.33;93.57
51986;BME280;38002;53.296;6.600;2022-12-20T04:42:19;101239.94;;;9.38;93.91
51986;BME280;38002;53.296;6.600;2022-12-20T04:47:19;101233.06;;;9.43;93.48
51986;BME280;38002;53.296;6.600;2022-12-20T04:52:20;101221.06;;;9.46;93.75
51986;BME280;38002;53.296;6.600;2022-12-20T04:57:39;101219.06;;;9.48;93.20
51986;BME280;38002;53.296;6.600;2022-12-20T05:02:40;101208.91;;;9.50;93.26
51986;BME280;38002;53.296;6.600;2022-12-20T05:07:40;101208.63;;;9.53;93.07
51986;BME280;38002;53.296;6.600;2022-12-20T05:12:41;101216.16;;;9.59;93.63
51986;BME280;38002;53.296;6.600;2022-12-20T05:17:41;101206.59;;;9.65;92.94
51986;BME280;38002;53.296;6.600;2022-12-20T05:22:42;101201.72;;;9.68;92.82
51986;BME280;38002;53.296;6.600;2022-12-20T05:28:01;101200.28;;;9.74;93.13
51986;BME280;38002;53.296;6.600;2022-12-20T05:33:02;101193.69;;;9.76;92.33
51986;BME280;38002;53.296;6.600;2022-12-20T05:38:02;101201.38;;;9.81;92.22
51986;BME280;38002;53.296;6.600;2022-12-20T05:43:03;101198.22;;;9.85;92.43
51986;BME280;38002;53.296;6.600;2022-12-20T05:48:03;101179.94;;;9.87;91.96
51986;BME280;38002;53.296;6.600;2022-12-20T05:53:04;101173.31;;;9.90;92.31
51986;BME280;38002;53.296;6.600;2022-12-20T05:58:05;101175.91;;;9.91;92.31
51986;BME280;38002;53.296;6.600;2022-12-20T06:03:06;101183.44;;;9.97;92.28
51986;BME280;38002;53.296;6.600;2022-12-20T06:08:09;101175.81;;;10.01;91.75
51986;BME280;38002;53.296;6.600;2022-12-20T06:13:10;101178.09;;;10.06;91.42
51986;BME280;38002;53.296;6.600;2022-12-20T06:18:10;101182.06;;;10.11;91.02
51986;BME280;38002;53.296;6.600;2022-12-20T06:23:11;101172.06;;;10.12;90.56
51986;BME280;38002;53.296;6.600;2022-12-20T06:28:11;101183.66;;;10.14;91.07
51986;BME280;38002;53.296;6.600;2022-12-20T06:33:12;101181.22;;;10.11;91.50
51986;BME280;38002;53.296;6.600;2022-12-20T06:38:12;101183.78;;;10.12;90.90
51986;BME280;38002;53.296;6.600;2022-12-20T06:43:13;101172.06;;;10.12;90.85
51986;BME280;38002;53.296;6.600;2022-12-20T06:48:13;101180.66;;;10.17;90.50
51986;BME280;38002;53.296;6.600;2022-12-20T06:53:14;101166.22;;;10.16;91.42
51986;BME280;38002;53.296;6.600;2022-12-20T06:58:15;101167.63;;;10.20;90.96
51986;BME280;38002;53.296;6.600;2022-12-20T07:03:16;101156.88;;;10.19;90.74
51986;BME280;38002;53.296;6.600;2022-12-20T07:08:16;101173.06;;;10.20;91.29
51986;BME280;38002;53.296;6.600;2022-12-20T07:13:17;101165.63;;;10.22;91.71
51986;BME280;38002;53.296;6.600;2022-12-20T07:18:18;101176.78;;;10.19;92.08
51986;BME280;38002;53.296;6.600;2022-12-20T07:23:18;101167.94;;;10.17;92.32
51986;BME280;38002;53.296;6.600;2022-12-20T07:28:19;101172.66;;;10.15;92.73
51986;BME280;38002;53.296;6.600;2022-12-20T07:33:19;101181.06;;;10.12;93.31
51986;BME280;38002;53.296;6.600;2022-12-20T07:38:19;101170.97;;;10.05;94.27
51986;BME280;38002;53.296;6.600;2022-12-20T07:43:20;101182.69;;;10.05;93.42
51986;BME280;38002;53.296;6.600;2022-12-20T07:48:20;101169.94;;;10.06;93.75
51986;BME280;38002;53.296;6.600;2022-12-20T07:53:22;101160.09;;;10.05;94.37
51986;BME280;38002;53.296;6.600;2022-12-20T07:58:25;101162.09;;;10.02;94.76
51986;BME280;38002;53.296;6.600;2022-12-20T08:03:31;101150.38;;;10.02;94.00
51986;BME280;38002;53.296;6.600;2022-12-20T08:08:35;101142.41;;;10.00;94.73
51986;BME280;38002;53.296;6.600;2022-12-20T08:13:37;101155.13;;;10.00;95.23
51986;BME280;38002;53.296;6.600;2022-12-20T08:18:38;101147.53;;;10.03;94.45
51986;BME280;38002;53.296;6.600;2022-12-20T08:23:39;101142.63;;;10.07;94.62
51986;BME280;38002;53.296;6.600;2022-12-20T08:28:40;101146.06;;;10.09;94.63
51986;BME280;38002;53.296;6.600;2022-12-20T08:33:40;101127.31;;;10.16;94.27
51986;BME280;38002;53.296;6.600;2022-12-20T08:38:41;101127.00;;;10.19;93.29
51986;BME280;38002;53.296;6.600;2022-12-20T08:43:42;101129.44;;;10.22;93.72
51986;BME280;38002;53.296;6.600;2022-12-20T08:48:42;101113.50;;;10.27;92.82
51986;BME280;38002;53.296;6.600;2022-12-20T08:53:43;101136.34;;;10.34;92.17
51986;BME280;38002;53.296;6.600;2022-12-20T08:58:43;101120.59;;;10.37;92.01
51986;BME280;38002;53.296;6.600;2022-12-20T09:03:45;101114.28;;;10.37;91.88
51986;BME280;38002;53.296;6.600;2022-12-20T09:08:46;101117.72;;;10.39;91.95
51986;BME280;38002;53.296;6.600;2022-12-20T09:13:48;101113.97;;;10.40;91.47
51986;BME280;38002;53.296;6.600;2022-12-20T09:18:49;101120.84;;;10.44;90.47
51986;BME280;38002;53.296;6.600;2022-12-20T09:23:51;101114.63;;;10.52;90.08
51986;BME280;38002;53.296;6.600;2022-12-20T09:28:51;101099.69;;;10.56;90.41
51986;BME280;38002;53.296;6.600;2022-12-20T09:33:54;101098.38;;;10.60;90.16
51986;BME280;38002;53.296;6.600;2022-12-20T09:38:55;101111.81;;;10.61;88.75
51986;BME280;38002;53.296;6.600;2022-12-20T09:43:56;101101.00;;;10.69;89.65
51986;BME280;38002;53.296;6.600;2022-12-20T09:48:57;101112.41;;;10.73;88.84
51986;BME280;38002;53.296;6.600;2022-12-20T09:59:36;101112.69;;;10.87;88.78
51986;BME280;38002;53.296;6.600;2022-12-20T10:04:38;101106.78;;;10.92;88.89
51986;BME280;38002;53.296;6.600;2022-12-20T10:10:09;101084.53;;;10.97;87.89
51986;BME280;38002;53.296;6.600;2022-12-20T10:15:19;101099.34;;;10.94;88.32
51986;BME280;38002;53.296;6.600;2022-12-20T10:21:02;101096.75;;;10.92;87.92
51986;BME280;38002;53.296;6.600;2022-12-20T10:26:10;101093.19;;;10.92;89.02
51986;BME280;38002;53.296;6.600;2022-12-20T10:31:14;101104.25;;;10.90;88.34
51986;BME280;38002;53.296;6.600;2022-12-20T10:41:31;101085.00;;;10.92;89.52
51986;BME280;38002;53.296;6.600;2022-12-20T10:47:02;101078.91;;;10.90;88.63
51986;BME280;38002;53.296;6.600;2022-12-20T11:02:24;101081.63;;;10.90;88.90
51986;BME280;38002;53.296;6.600;2022-12-20T11:07:30;101068.88;;;10.90;88.89
51986;BME280;38002;53.296;6.600;2022-12-20T11:12:30;101047.97;;;10.91;89.80
51986;BME280;38002;53.296;6.600;2022-12-20T11:22:48;101074.06;;;10.84;90.15
51986;BME280;38002;53.296;6.600;2022-12-20T11:48:56;101062.00;;;10.61;91.25
51986;BME280;38002;53.296;6.600;2022-12-20T11:54:15;101059.28;;;10.61;91.78
51986;BME280;38002;53.296;6.600;2022-12-20T12:04:38;101055.88;;;10.59;91.55
51986;BME280;38002;53.296;6.600;2022-12-20T12:09:48;101068.94;;;10.55;92.31
51986;BME280;38002;53.296;6.600;2022-12-20T12:15:05;101037.47;;;10.53;92.59
51986;BME280;38002;53.296;6.600;2022-12-20T12:20:47;101045.78;;;10.51;92.29
51986;BME280;38002;53.296;6.600;2022-12-20T12:25:44;101051.69;;;10.46;93.36
51986;BME280;38002;53.296;6.600;2022-12-20T12:30:50;101035.69;;;10.43;92.73
51986;BME280;38002;53.296;6.600;2022-12-20T12:46:53;101041.06;;;10.35;93.71
51986;BME280;38002;53.296;6.600;2022-12-20T12:52:00;101034.22;;;10.31;94.79
51986;BME280;38002;53.296;6.600;2022-12-20T12:57:06;101028.22;;;10.28;94.24
51986;BME280;38002;53.296;6.600;2022-12-20T13:07:43;101027.03;;;10.22;95.39
51986;BME280;38002;53.296;6.600;2022-12-20T13:17:57;101028.16;;;10.20;94.79
51986;BME280;38002;53.296;6.600;2022-12-20T13:23:09;101032.59;;;10.21;95.79
51986;BME280;38002;53.296;6.600;2022-12-20T13:33:41;101037.03;;;10.22;95.10
51986;BME280;38002;53.296;6.600;2022-12-20T13:43:45;101029.56;;;10.24;94.85
51986;BME280;38002;53.296;6.600;2022-12-20T13:48:55;101040.97;;;10.27;95.12
51986;BME280;38002;53.296;6.600;2022-12-20T13:54:02;101024.66;;;10.27;94.83
51986;BME280;38002;53.296;6.600;2022-12-20T13:59:07;101026.22;;;10.30;94.91
51986;BME280;38002;53.296;6.600;2022-12-20T14:04:13;101028.94;;;10.30;94.70
51986;BME280;38002;53.296;6.600;2022-12-20T14:09:35;101035.38;;;10.29;94.51
51986;BME280;38002;53.296;6.600;2022-12-20T14:14:44;101046.25;;;10.29;95.61
51986;BME280;38002;53.296;6.600;2022-12-20T14:19:44;101051.38;;;10.32;94.84
51986;BME280;38002;53.296;6.600;2022-12-20T14:24:45;101055.13;;;10.31;95.54
51986;BME280;38002;53.296;6.600;2022-12-20T14:29:45;101049.69;;;10.31;95.20
51986;BME280;38002;53.296;6.600;2022-12-20T14:34:46;101049.50;;;10.32;94.85
51986;BME280;38002;53.296;6.600;2022-12-20T14:40:01;101049.69;;;10.31;95.40
51986;BME280;38002;53.296;6.600;2022-12-20T14:50:23;101053.56;;;10.28;94.81
51986;BME280;38002;53.296;6.600;2022-12-20T14:55:36;101048.97;;;10.29;95.87
51986;BME280;38002;53.296;6.600;2022-12-20T15:01:14;101063.56;;;10.28;96.53
51986;BME280;38002;53.296;6.600;2022-12-20T15:11:37;101050.31;;;10.25;96.07
51986;BME280;38002;53.296;6.600;2022-12-20T15:16:45;101065.75;;;10.24;95.52
51986;BME280;38002;53.296;6.600;2022-12-20T15:21:46;101062.16;;;10.24;95.58
51986;BME280;38002;53.296;6.600;2022-12-20T15:26:47;101060.44;;;10.23;95.46
51986;BME280;38002;53.296;6.600;2022-12-20T15:31:49;101069.63;;;10.22;96.06
51986;BME280;38002;53.296;6.600;2022-12-20T15:36:50;101056.19;;;10.20;95.83
51986;BME280;38002;53.296;6.600;2022-12-20T15:41:51;101067.22;;;10.19;95.91
51986;BME280;38002;53.296;6.600;2022-12-20T15:46:51;101060.09;;;10.18;96.27
51986;BME280;38002;53.296;6.600;2022-12-20T15:51:53;101068.38;;;10.16;95.99
51986;BME280;38002;53.296;6.600;2022-12-20T15:57:13;101078.25;;;10.17;95.83
51986;BME280;38002;53.296;6.600;2022-12-20T16:02:26;101080.41;;;10.14;95.95
51986;BME280;38002;53.296;6.600;2022-12-20T16:07:27;101080.00;;;10.09;96.49
51986;BME280;38002;53.296;6.600;2022-12-20T16:12:32;101082.72;;;10.09;96.35
51986;BME280;38002;53.296;6.600;2022-12-20T16:17:33;101079.28;;;10.07;96.44
51986;BME280;38002;53.296;6.600;2022-12-20T16:22:33;101084.72;;;10.07;96.20
51986;BME280;38002;53.296;6.600;2022-12-20T16:27:34;101080.47;;;10.04;95.78
51986;BME280;38002;53.296;6.600;2022-12-20T16:32:34;101075.16;;;10.02;95.85
51986;BME280;38002;53.296;6.600;2022-12-20T16:37:35;101079.91;;;10.00;95.58
51986;BME280;38002;53.296;6.600;2022-12-20T16:42:35;101080.06;;;9.99;95.96
51986;BME280;38002;53.296;6.600;2022-12-20T16:47:35;101094.63;;;9.98;95.50
51986;BME280;38002;53.296;6.600;2022-12-20T16:52:36;101086.66;;;9.96;95.31
51986;BME280;38002;53.296;6.600;2022-12-20T16:57:36;101101.25;;;9.95;95.86
51986;BME280;38002;53.296;6.600;2022-12-20T17:02:37;101116.69;;;9.95;95.60
51986;BME280;38002;53.296;6.600;2022-12-20T17:07:37;101104.97;;;9.94;95.55
51986;BME280;38002;53.296;6.600;2022-12-20T17:12:38;101110.53;;;9.93;95.76
51986;BME280;38002;53.296;6.600;2022-12-20T17:17:38;101107.81;;;9.93;95.90
51986;BME280;38002;53.296;6.600;2022-12-20T17:22:39;101110.72;;;9.91;96.46
51986;BME280;38002;53.296;6.600;2022-12-20T17:27:40;101121.56;;;9.91;96.15
51986;BME280;38002;53.296;6.600;2022-12-20T17:32:42;101123.56;;;9.89;96.39
51986;BME280;38002;53.296;6.600;2022-12-20T17:37:42;101119.44;;;9.85;96.19
51986;BME280;38002;53.296;6.600;2022-12-20T17:42:43;101117.91;;;9.83;96.17
51986;BME280;38002;53.296;6.600;2022-12-20T17:47:43;101115.78;;;9.77;95.90
51986;BME280;38002;53.296;6.600;2022-12-20T17:52:45;101122.38;;;9.74;95.59
51986;BME280;38002;53.296;6.600;2022-12-20T17:57:46;101120.13;;;9.70;96.18
51986;BME280;38002;53.296;6.600;2022-12-20T18:02:47;101120.38;;;9.67;95.99
51986;BME280;38002;53.296;6.600;2022-12-20T18:07:52;101120.56;;;9.65;95.87
51986;BME280;38002;53.296;6.600;2022-12-20T18:12:52;101123.72;;;9.61;96.10
51986;BME280;38002;53.296;6.600;2022-12-20T18:17:53;101136.44;;;9.60;96.27
51986;BME280;38002;53.296;6.600;2022-12-20T18:22:53;101130.28;;;9.58;95.88
51986;BME280;38002;53.296;6.600;2022-12-20T18:27:54;101124.16;;;9.56;96.62
51986;BME280;38002;53.296;6.600;2022-12-20T18:32:54;101134.03;;;9.57;96.56
51986;BME280;38002;53.296;6.600;2022-12-20T18:37:55;101130.59;;;9.55;96.00
51986;BME280;38002;53.296;6.600;2022-12-20T18:42:55;101136.16;;;9.53;96.69
51986;BME280;38002;53.296;6.600;2022-12-20T18:47:56;101125.63;;;9.50;95.92
51986;BME280;38002;53.296;6.600;2022-12-20T18:52:56;101127.78;;;9.47;96.49
51986;BME280;38002;53.296;6.600;2022-12-20T18:57:57;101126.38;;;9.43;96.59
51986;BME280;38002;53.296;6.600;2022-12-20T19:03:00;101136.34;;;9.42;96.13
51986;BME280;38002;53.296;6.600;2022-12-20T19:08:01;101145.50;;;9.41;96.47
51986;BME280;38002;53.296;6.600;2022-12-20T19:13:01;101137.53;;;9.40;96.58
51986;BME280;38002;53.296;6.600;2022-12-20T19:18:03;101141.53;;;9.36;96.18
51986;BME280;38002;53.296;6.600;2022-12-20T19:23:04;101134.22;;;9.36;96.41
51986;BME280;38002;53.296;6.600;2022-12-20T19:28:04;101138.09;;;9.34;96.05
51986;BME280;38002;53.296;6.600;2022-12-20T19:33:05;101137.53;;;9.30;96.86
51986;BME280;38002;53.296;6.600;2022-12-20T19:38:05;101139.41;;;9.30;96.54
51986;BME280;38002;53.296;6.600;2022-12-20T19:43:07;101151.41;;;9.27;96.83
51986;BME280;38002;53.296;6.600;2022-12-20T19:48:07;101162.72;;;9.23;96.38
51986;BME280;38002;53.296;6.600;2022-12-20T19:53:08;101151.44;;;9.18;96.23
51986;BME280;38002;53.296;6.600;2022-12-20T19:58:09;101151.72;;;9.15;96.39
51986;BME280;38002;53.296;6.600;2022-12-20T20:03:10;101157.59;;;9.10;96.11
51986;BME280;38002;53.296;6.600;2022-12-20T20:08:11;101142.44;;;9.07;95.56
51986;BME280;38002;53.296;6.600;2022-12-20T20:13:11;101145.47;;;9.04;96.28
51986;BME280;38002;53.296;6.600;2022-12-20T20:18:12;101153.03;;;9.01;96.80
51986;BME280;38002;53.296;6.600;2022-12-20T20:23:13;101158.88;;;8.96;96.93
51986;BME280;38002;53.296;6.600;2022-12-20T20:28:14;101167.28;;;8.93;96.09
51986;BME280;38002;53.296;6.600;2022-12-20T20:33:15;101164.19;;;8.88;96.08
51986;BME280;38002;53.296;6.600;2022-12-20T20:38:16;101178.16;;;8.84;96.02
51986;BME280;38002;53.296;6.600;2022-12-20T20:43:17;101179.47;;;8.80;96.43
51986;BME280;38002;53.296;6.600;2022-12-20T20:48:17;101181.00;;;8.73;96.22
51986;BME280;38002;53.296;6.600;2022-12-20T20:53:18;101160.03;;;8.65;96.10
51986;BME280;38002;53.296;6.600;2022-12-20T20:58:18;101189.41;;;8.60;95.99
51986;BME280;38002;53.296;6.600;2022-12-20T21:03:19;101186.28;;;8.55;96.04
51986;BME280;38002;53.296;6.600;2022-12-20T21:08:19;101172.31;;;8.50;96.74
51986;BME280;38002;53.296;6.600;2022-12-20T21:13:20;101160.00;;;8.46;96.31
51986;BME280;38002;53.296;6.600;2022-12-20T21:18:21;101168.00;;;8.38;96.35
51986;BME280;38002;53.296;6.600;2022-12-20T21:23:22;101176.41;;;8.35;96.47
51986;BME280;38002;53.296;6.600;2022-12-20T21:28:23;101174.13;;;8.30;96.31
51986;BME280;38002;53.296;6.600;2022-12-20T21:33:23;101172.94;;;8.23;96.20
51986;BME280;38002;53.296;6.600;2022-12-20T21:38:24;101167.09;;;8.18;95.97
51986;BME280;38002;53.296;6.600;2022-12-20T21:43:24;101168.50;;;8.12;96.02
51986;BME280;38002;53.296;6.600;2022-12-20T21:48:26;101174.31;;;8.08;96.35
51986;BME280;38002;53.296;6.600;2022-12-20T21:53:27;101175.59;;;8.04;96.22
51986;BME280;38002;53.296;6.600;2022-12-20T21:58:29;101174.88;;;8.02;96.73
51986;BME280;38002;53.296;6.600;2022-12-20T22:03:30;101181.41;;;7.99;96.03
51986;BME280;38002;53.296;6.600;2022-12-20T22:08:31;101163.31;;;8.00;96.52
51986;BME280;38002;53.296;6.600;2022-12-20T22:13:33;101168.88;;;7.98;96.50
51986;BME280;38002;53.296;6.600;2022-12-20T22:18:35;101173.72;;;7.95;96.29
51986;BME280;38002;53.296;6.600;2022-12-20T22:23:36;101190.97;;;7.94;96.46
51986;BME280;38002;53.296;6.600;2022-12-20T22:28:37;101211.03;;;7.91;96.36
51986;BME280;38002;53.296;6.600;2022-12-20T22:33:38;101187.94;;;7.87;96.46
51986;BME280;38002;53.296;6.600;2022-12-20T22:38:38;101193.06;;;7.81;96.31
51986;BME280;38002;53.296;6.600;2022-12-20T22:43:39;101198.72;;;7.78;96.99
51986;BME280;38002;53.296;6.600;2022-12-20T22:48:41;101202.69;;;7.73;96.05
51986;BME280;38002;53.296;6.600;2022-12-20T22:53:42;101202.38;;;7.67;96.60
51986;BME280;38002;53.296;6.600;2022-12-20T22:58:43;101203.38;;;7.66;96.10
51986;BME280;38002;53.296;6.600;2022-12-20T23:03:44;101202.63;;;7.64;96.64
51986;BME280;38002;53.296;6.600;2022-12-20T23:08:45;101203.66;;;7.63;96.70
51986;BME280;38002;53.296;6.600;2022-12-20T23:13:45;101218.28;;;7.60;96.70
51986;BME280;38002;53.296;6.600;2022-12-20T23:19:05;101200.03;;;7.53;96.32
51986;BME280;38002;53.296;6.600;2022-12-20T23:24:05;101206.81;;;7.47;96.88
51986;BME280;38002;53.296;6.600;2022-12-20T23:29:06;101202.28;;;7.48;96.91
51986;BME280;38002;53.296;6.600;2022-12-20T23:34:07;101198.13;;;7.44;96.94
51986;BME280;38002;53.296;6.600;2022-12-20T23:39:08;101208.38;;;7.40;97.04
51986;BME280;38002;53.296;6.600;2022-12-20T23:44:08;101202.50;;;7.35;96.55
51986;BME280;38002;53.296;6.600;2022-12-20T23:49:09;101202.88;;;7.30;96.83
51986;BME280;38002;53.296;6.600;2022-12-20T23:54:10;101203.44;;;7.24;97.06
51986;BME280;38002;53.296;6.600;2022-12-20T23:59:10;101196.56;;;7.20;96.66
